Bellevue, WA (98004)

3:20 PM PST on December 02, 2016 (GMT -0800)
Northwest Bellevue | | Change Station

Elev 0 ft 47.62 °N, 122.21 °W | Updated 2 minutes ago

Light Rain
Light Rain Mist
47.1 °F
Feels Like 47 °F
N
1.9
Wind Variable Wind from South
Gusts 5.6 mph

Today
High -- | Low -- °F
--% Chance of Precip.
Yesterday
High -- | Low -- °F
Precip. -- in
Pressure 30.14 in
Visibility 1.8 miles
Clouds Mostly Cloudy 900 ft
Overcast 2800 ft
Windchill 47 °F
Dew Point 45 °F
Humidity 93%
Rainfall 0.12 in
Snow Depth Not available.
7:38 AM 4:18 PM
Waxing Crescent, 11% visible
SPECI KBFI 022312Z 17006KT 1 3/4SM -RA BR BKN009 OVC028 08/08 A3014 RMK AO2 P0002 T00830078
Pressure 30.14 in
Visibility 1.8 miles
Clouds Mostly Cloudy 900 ft
Overcast 2800 ft
Windchill 47 °F
Dew Point 45 °F
Humidity 93%
Rainfall 0.12 in
Snow Depth Not available.
7:38 AM 4:18 PM
Waxing Crescent, 11% visible
SPECI KBFI 022312Z 17006KT 1 3/4SM -RA BR BKN009 OVC028 08/08 A3014 RMK AO2 P0002 T00830078

10-Day Weather Forecast

Almanac

Astronomy

Dec. 02, 2016 Rise Set
Actual Time
Civil Twilight
Nautical Twilight
Astronomical Twilight
Moon
Length of Visible Light
Length of Day
Tomorrow will be .
, % of the Moon is Illuminated

Today's Extremes

State Highs State Lows

Community

WunderPhotos

Upload Photos

1,955,377 photos uploaded!

WunderBlog® & News

Nearby

Air Quality

  Air Quality AQ Index Pollutant
Not available.

Snow Depth

Station Depth Elevation

Earthquake Activity

City Distance Mag. Time & Date
Minimum magnitude displayed is 2.5.

Coastal Water Temperatures

Place Temperature

Stations

Nearby Weather Stations

Station Location Temp. Windchill Dew Point Humidity Wind Precip. Elev Updated Type
                   

Watches & Warnings

There are currently no watches in effect.